Time;durP1;ratioP1;P1;durP2;ratioP2;P2;SDS_P1;SDS_P2;PMS_P1;PMS_P2;Temp;Humidity;BMP_temperature;BMP_pressure;BME280_temperature;BME280_humidity;BME280_pressure;Samples;Min_cycle;Max_cycle;Signal;HPM_P1;HPM_P2
2021/12/18 00:00:32;;;;;;;3.80;0.90;;;9.00;99.90;;;;;;5029945;28;20236;-90
2021/12/18 00:02:58;;;;;;;0.10;0.10;;;9.10;99.90;;;;;;5029416;28;21027;-90
2021/12/18 00:05:24;;;;;;;0.10;0.10;;;9.10;99.90;;;;;;5046845;28;20268;-91
2021/12/18 00:07:49;;;;;;;0.10;0.10;;;9.10;99.90;;;;;;5031174;28;20776;-89
2021/12/18 00:10:20;;;;;;;0.40;0.40;;;9.10;99.90;;;;;;5014490;28;20226;-89
2021/12/18 00:12:49;;;;;;;1.23;0.60;;;9.00;99.90;;;;;;5047731;28;20257;-88
2021/12/18 00:15:19;;;;;;;0.20;0.20;;;9.10;99.90;;;;;;5030309;28;20218;-88
2021/12/18 00:17:45;;;;;;;0.20;0.20;;;9.10;99.90;;;;;;5041639;28;20217;-89
2021/12/18 00:20:11;;;;;;;0.30;0.30;;;9.20;99.90;;;;;;5031166;28;20280;-87
2021/12/18 00:22:37;;;;;;;0.17;0.17;;;9.10;99.90;;;;;;5045643;28;20254;-90
2021/12/18 00:25:03;;;;;;;1.57;0.50;;;9.10;99.90;;;;;;5042848;28;20268;-90
2021/12/18 00:27:29;;;;;;;0.20;0.20;;;9.10;99.90;;;;;;5046098;28;20241;-89
2021/12/18 00:29:55;;;;;;;1.07;0.50;;;9.00;99.90;;;;;;5013595;28;20690;-89
2021/12/18 00:32:21;;;;;;;0.43;0.43;;;9.00;99.90;;;;;;5030678;28;20218;-89
2021/12/18 00:34:47;;;;;;;0.10;0.10;;;9.00;99.90;;;;;;5046237;28;20345;-89
2021/12/18 00:37:12;;;;;;;0.50;0.50;;;9.00;99.90;;;;;;5014526;28;20587;-90
2021/12/18 00:39:46;;;;;;;0.50;0.50;;;8.90;99.90;;;;;;5029455;28;20218;-89
2021/12/18 00:44:46;;;;;;;2.00;0.77;;;9.00;99.90;;;;;;5045830;28;20223;-88
2021/12/18 00:47:12;;;;;;;1.60;0.80;;;9.10;99.90;;;;;;5046765;28;20297;-89
2021/12/18 00:49:38;;;;;;;0.77;0.73;;;9.10;99.90;;;;;;5044446;28;20214;-85
2021/12/18 00:52:04;;;;;;;0.60;0.40;;;9.10;99.90;;;;;;5043066;28;20288;-88
2021/12/18 00:54:31;;;;;;;0.40;0.40;;;9.00;99.90;;;;;;5046243;28;20670;-88
2021/12/18 00:56:58;;;;;;;0.80;0.80;;;8.90;99.90;;;;;;5045656;28;20352;-88
2021/12/18 00:59:24;;;;;;;5.27;1.27;;;8.90;99.90;;;;;;5029901;28;20190;-88
2021/12/18 01:01:49;;;;;;;0.30;0.30;;;8.90;99.90;;;;;;5013570;28;20205;-87
2021/12/18 01:04:16;;;;;;;9.47;0.83;;;8.80;99.90;;;;;;5030122;28;20280;-89
2021/12/18 01:06:41;;;;;;;1.27;0.97;;;8.90;99.90;;;;;;5061635;28;20313;-88
2021/12/18 01:09:07;;;;;;;4.37;1.17;;;8.90;99.90;;;;;;5029234;28;20278;-88
2021/12/18 01:11:39;;;;;;;2.57;0.70;;;9.00;99.90;;;;;;5029423;28;20279;-88
2021/12/18 01:24:47;;;;;;;0.63;0.63;;;9.00;99.90;;;;;;5046427;28;21055;-89
2021/12/18 01:27:13;;;;;;;0.67;0.67;;;9.00;99.90;;;;;;5012697;28;20205;-88
2021/12/18 01:29:39;;;;;;;0.33;0.33;;;9.00;99.90;;;;;;5029214;28;20209;-90
2021/12/18 01:32:05;;;;;;;3.93;1.13;;;9.10;99.90;;;;;;5045460;28;20721;-90
2021/12/18 01:34:31;;;;;;;0.63;0.63;;;9.00;99.90;;;;;;5045678;28;20218;-89
2021/12/18 01:36:57;;;;;;;2.70;1.47;;;9.00;99.90;;;;;;5028998;28;20714;-88
2021/12/18 01:39:22;;;;;;;0.57;0.57;;;9.00;99.90;;;;;;5023873;28;20226;-90
2021/12/18 01:42:39;;;;;;;2.17;1.13;;;9.00;99.90;;;;;;5013140;28;20690;-89
2021/12/18 01:52:52;;;;;;;9.83;1.67;;;9.00;99.90;;;;;;5046805;28;20233;-88
2021/12/18 01:55:20;;;;;;;3.13;0.70;;;9.00;99.90;;;;;;5045810;28;20217;-90
2021/12/18 01:57:46;;;;;;;1.00;0.53;;;8.90;99.90;;;;;;5029051;28;20233;-89
2021/12/18 02:00:21;;;;;;;1.60;1.50;;;9.00;99.90;;;;;;5028196;28;20222;-87
2021/12/18 02:02:47;;;;;;;0.87;0.47;;;9.00;99.90;;;;;;5043877;28;20225;-89
2021/12/18 02:05:14;;;;;;;0.60;0.60;;;9.00;99.90;;;;;;5045435;28;20190;-88
2021/12/18 02:07:41;;;;;;;0.27;0.27;;;9.00;99.90;;;;;;5044651;28;20214;-89
2021/12/18 02:10:16;;;;;;;0.40;0.40;;;9.00;99.90;;;;;;5042489;28;20224;-91
2021/12/18 02:13:08;;;;;;;1.10;1.00;;;9.10;99.90;;;;;;5027765;28;20312;-88
2021/12/18 02:21:11;;;;;;;1.60;0.57;;;9.20;99.90;;;;;;5026946;28;20214;-87
2021/12/18 02:23:38;;;;;;;2.67;0.50;;;9.20;99.90;;;;;;5040172;28;20226;-91
2021/12/18 02:26:04;;;;;;;0.70;0.60;;;9.20;99.90;;;;;;5031884;28;20186;-89
2021/12/18 02:28:30;;;;;;;0.93;0.93;;;9.30;99.90;;;;;;5040883;28;20218;-92
2021/12/18 02:30:58;;;;;;;1.07;1.07;;;9.30;99.90;;;;;;5041297;28;20240;-89
2021/12/18 02:33:25;;;;;;;1.37;0.37;;;9.30;99.90;;;;;;5038240;28;20229;-88
2021/12/18 02:35:54;;;;;;;1.67;1.23;;;9.30;99.90;;;;;;5044515;28;20244;-87
2021/12/18 02:38:29;;;;;;;1.03;0.70;;;9.30;99.90;;;;;;5037580;28;20178;-88
2021/12/18 02:41:12;;;;;;;1.10;1.00;;;9.40;99.90;;;;;;5041963;28;20214;-88
2021/12/18 02:43:41;;;;;;;1.70;1.50;;;9.40;99.90;;;;;;5041484;28;20222;-87
2021/12/18 02:46:09;;;;;;;0.70;0.70;;;9.30;99.90;;;;;;5025589;28;20494;-88
2021/12/18 02:48:40;;;;;;;1.07;0.70;;;9.40;99.90;;;;;;5027143;28;20240;-91
2021/12/18 02:51:09;;;;;;;0.30;0.30;;;9.30;99.90;;;;;;5044756;28;20272;-89
2021/12/18 02:53:37;;;;;;;0.43;0.43;;;9.30;99.90;;;;;;5044129;28;20205;-91
2021/12/18 02:56:09;;;;;;;0.27;0.27;;;9.30;99.90;;;;;;5027914;28;20217;-90
2021/12/18 02:58:44;;;;;;;1.27;0.60;;;9.30;99.90;;;;;;5023642;28;21086;-89
2021/12/18 03:01:14;;;;;;;1.33;1.03;;;9.30;99.90;;;;;;5024098;28;20218;-87
2021/12/18 03:03:42;;;;;;;2.50;1.97;;;9.40;99.90;;;;;;5030622;28;20211;-89
2021/12/18 03:22:58;;;;;;;0.93;0.63;;;9.30;99.90;;;;;;5043684;28;20234;-88
2021/12/18 03:25:26;;;;;;;1.30;1.20;;;9.30;99.90;;;;;;5043952;28;20344;-88
2021/12/18 03:27:53;;;;;;;0.77;0.77;;;9.30;99.90;;;;;;5037134;28;20222;-93
2021/12/18 03:30:20;;;;;;;2.97;1.40;;;9.40;99.90;;;;;;5030615;28;20708;-89
2021/12/18 03:32:47;;;;;;;1.10;1.10;;;9.40;99.90;;;;;;5047429;28;20258;-87
2021/12/18 03:35:14;;;;;;;1.50;1.20;;;9.40;99.90;;;;;;5032243;28;20276;-91
2021/12/18 03:37:40;;;;;;;2.33;1.60;;;9.40;99.90;;;;;;5048223;28;20218;-88
2021/12/18 03:40:09;;;;;;;6.60;3.33;;;9.40;99.90;;;;;;5048962;28;20597;-87
2021/12/18 03:42:36;;;;;;;5.80;4.37;;;9.40;99.90;;;;;;5047881;28;20367;-87
2021/12/18 03:45:03;;;;;;;8.77;4.93;;;9.50;99.90;;;;;;5045771;28;20310;-88
2021/12/18 03:47:28;;;;;;;4.57;3.17;;;9.50;99.90;;;;;;5045562;28;20197;-88
2021/12/18 03:49:54;;;;;;;4.43;4.03;;;9.60;99.90;;;;;;5046159;28;20190;-87
2021/12/18 03:52:20;;;;;;;3.40;2.10;;;9.50;99.90;;;;;;5029384;28;20282;-88
2021/12/18 03:54:46;;;;;;;3.53;1.73;;;9.50;99.90;;;;;;5014183;28;20701;-85
2021/12/18 03:57:11;;;;;;;1.67;1.47;;;9.50;99.90;;;;;;5047301;28;20229;-89
2021/12/18 03:59:37;;;;;;;0.73;0.40;;;9.50;99.90;;;;;;5030734;28;20549;-89
2021/12/18 04:02:03;;;;;;;4.20;1.80;;;9.50;99.90;;;;;;5048024;28;21111;-88
2021/12/18 04:04:29;;;;;;;2.00;1.10;;;9.50;99.90;;;;;;5047056;28;20309;-90
2021/12/18 04:06:55;;;;;;;1.63;1.10;;;9.50;99.90;;;;;;5030139;28;20591;-86
2021/12/18 04:09:20;;;;;;;9.73;0.87;;;9.50;99.90;;;;;;5046077;28;20226;-88
2021/12/18 04:11:46;;;;;;;1.17;0.87;;;9.50;99.90;;;;;;5047389;28;20721;-87
2021/12/18 04:14:13;;;;;;;1.93;1.20;;;9.50;99.90;;;;;;5030827;28;20175;-87
2021/12/18 04:16:39;;;;;;;0.97;0.97;;;9.50;99.90;;;;;;5028534;28;20222;-89
2021/12/18 04:19:05;;;;;;;0.97;0.87;;;9.50;99.90;;;;;;5046826;28;20272;-86
2021/12/18 04:21:32;;;;;;;33.80;0.97;;;9.50;99.90;;;;;;5046335;28;20214;-87
2021/12/18 04:23:59;;;;;;;2.80;1.30;;;9.60;99.90;;;;;;5026289;28;20230;-88
2021/12/18 04:26:26;;;;;;;2.20;1.17;;;9.60;99.90;;;;;;5027091;28;20981;-87
2021/12/18 04:28:52;;;;;;;2.47;1.70;;;9.60;99.90;;;;;;5030236;28;20560;-86
2021/12/18 04:31:17;;;;;;;3.20;1.43;;;9.70;99.90;;;;;;5046953;28;20234;-88
2021/12/18 04:33:43;;;;;;;0.73;0.73;;;9.70;99.90;;;;;;5046121;28;20634;-86
2021/12/18 04:36:09;;;;;;;1.70;1.33;;;9.70;99.90;;;;;;5047156;28;20253;-86
2021/12/18 04:38:35;;;;;;;3.43;2.57;;;9.80;99.90;;;;;;5045829;28;20221;-86
2021/12/18 04:41:03;;;;;;;1.40;1.07;;;9.80;99.90;;;;;;5029945;28;20209;-90
2021/12/18 04:43:29;;;;;;;0.67;0.67;;;9.90;99.90;;;;;;5040420;28;20304;-86
2021/12/18 04:45:55;;;;;;;1.50;1.40;;;9.90;99.90;;;;;;5043772;28;20218;-86
2021/12/18 04:48:21;;;;;;;1.30;1.20;;;9.90;99.90;;;;;;5041712;28;20309;-87
2021/12/18 04:50:47;;;;;;;0.70;0.70;;;9.90;99.90;;;;;;5042257;28;20261;-90
2021/12/18 04:53:13;;;;;;;1.70;1.10;;;9.80;99.90;;;;;;5045702;28;20664;-88
2021/12/18 04:55:39;;;;;;;1.60;1.50;;;9.80;99.90;;;;;;5028523;28;20217;-88
2021/12/18 04:58:05;;;;;;;1.07;0.63;;;9.80;99.90;;;;;;5028301;28;20226;-87
2021/12/18 05:00:38;;;;;;;12.37;1.70;;;9.80;99.90;;;;;;5044080;28;20225;-86
2021/12/18 05:03:11;;;;;;;1.03;0.77;;;9.80;99.90;;;;;;5030227;28;20566;-88
2021/12/18 05:05:37;;;;;;;0.57;0.57;;;9.80;99.90;;;;;;5045284;28;21007;-86
2021/12/18 05:08:04;;;;;;;0.43;0.43;;;9.80;99.90;;;;;;5046075;28;20232;-88
2021/12/18 05:10:30;;;;;;;1.57;1.10;;;9.80;99.90;;;;;;5047013;28;20686;-86
2021/12/18 05:12:56;;;;;;;0.70;0.70;;;9.80;99.90;;;;;;5044249;28;20241;-87
2021/12/18 05:15:22;;;;;;;0.47;0.47;;;9.80;99.90;;;;;;5046021;28;20693;-89
2021/12/18 05:17:48;;;;;;;1.50;0.70;;;9.80;99.90;;;;;;5046776;28;20246;-87
2021/12/18 05:20:14;;;;;;;0.67;0.67;;;9.80;99.90;;;;;;5030540;28;20232;-87
2021/12/18 05:22:40;;;;;;;0.70;0.63;;;9.80;99.90;;;;;;5046022;28;20697;-87
2021/12/18 05:25:07;;;;;;;1.50;1.30;;;9.80;99.90;;;;;;5032640;28;20284;-89
2021/12/18 05:27:34;;;;;;;0.50;0.50;;;9.80;99.90;;;;;;5029594;28;20221;-89
2021/12/18 05:29:59;;;;;;;0.67;0.50;;;9.90;99.90;;;;;;5044487;28;20252;-86
2021/12/18 05:32:25;;;;;;;0.40;0.40;;;9.80;99.90;;;;;;5045507;28;20218;-86
2021/12/18 05:34:51;;;;;;;2.40;0.90;;;9.80;99.90;;;;;;5046586;28;20194;-87
2021/12/18 05:39:48;;;;;;;1.73;1.50;;;9.80;99.90;;;;;;5046510;28;20268;-87
2021/12/18 05:42:15;;;;;;;0.63;0.63;;;9.80;99.90;;;;;;5045858;28;20244;-86
2021/12/18 05:44:41;;;;;;;1.13;0.83;;;9.80;99.90;;;;;;5039906;28;20196;-89
2021/12/18 05:47:07;;;;;;;1.73;0.77;;;9.80;99.90;;;;;;5045566;28;20589;-86
2021/12/18 05:49:33;;;;;;;2.93;1.20;;;9.80;99.90;;;;;;5011779;28;20221;-89
2021/12/18 05:51:59;;;;;;;2.53;1.03;;;9.80;99.90;;;;;;5045193;28;20233;-88
2021/12/18 05:54:24;;;;;;;1.10;1.00;;;9.80;99.90;;;;;;5012692;28;20222;-90
2021/12/18 05:56:50;;;;;;;2.33;1.20;;;9.80;99.90;;;;;;5042423;28;20761;-90
2021/12/18 05:59:16;;;;;;;2.90;1.50;;;9.90;99.90;;;;;;5028311;28;20651;-89
2021/12/18 06:01:43;;;;;;;4.13;1.57;;;9.90;99.90;;;;;;5026482;28;20224;-87
2021/12/18 06:04:09;;;;;;;4.90;1.50;;;9.90;99.90;;;;;;5042578;28;20214;-91
2021/12/18 06:06:34;;;;;;;1.47;1.20;;;10.00;99.90;;;;;;5010938;28;20224;-90
2021/12/18 06:09:00;;;;;;;4.03;1.40;;;10.00;99.90;;;;;;5045354;28;20301;-91
2021/12/18 06:11:28;;;;;;;0.37;0.37;;;10.00;99.90;;;;;;5046596;28;20276;-87
2021/12/18 06:13:54;;;;;;;1.80;1.30;;;10.00;99.90;;;;;;5028154;28;20220;-88
2021/12/18 06:16:21;;;;;;;1.70;0.83;;;10.00;99.90;;;;;;5044442;28;20402;-88
2021/12/18 06:18:50;;;;;;;3.30;0.90;;;10.00;99.90;;;;;;5045624;28;20701;-88
2021/12/18 06:21:17;;;;;;;0.50;0.50;;;10.10;99.90;;;;;;5045437;28;20228;-88
2021/12/18 06:23:48;;;;;;;0.30;0.30;;;10.10;99.90;;;;;;5045731;28;20363;-88
2021/12/18 06:26:15;;;;;;;0.37;0.37;;;10.10;99.90;;;;;;5063530;28;20205;-87
2021/12/18 06:28:41;;;;;;;2.33;2.13;;;10.20;99.90;;;;;;5006581;28;20221;-88
2021/12/18 06:31:07;;;;;;;7.33;1.13;;;10.20;99.90;;;;;;5030095;28;20229;-89
2021/12/18 06:33:33;;;;;;;0.90;0.50;;;10.20;99.90;;;;;;5031877;28;20678;-88
2021/12/18 06:35:59;;;;;;;0.50;0.50;;;10.30;99.90;;;;;;5029506;28;20209;-91
2021/12/18 06:38:26;;;;;;;0.63;0.63;;;10.30;99.90;;;;;;5045702;28;20193;-89
2021/12/18 06:40:52;;;;;;;1.10;0.93;;;10.30;99.90;;;;;;5047791;28;20787;-88
2021/12/18 06:43:17;;;;;;;1.30;1.23;;;10.30;99.90;;;;;;5047328;28;20225;-89
2021/12/18 06:45:43;;;;;;;0.77;0.70;;;10.30;99.90;;;;;;5031292;28;20210;-88
2021/12/18 06:48:10;;;;;;;1.00;1.00;;;10.30;99.90;;;;;;5048189;28;20734;-89
2021/12/18 06:50:36;;;;;;;0.53;0.53;;;10.30;99.90;;;;;;5047822;28;20217;-88
2021/12/18 06:53:04;;;;;;;1.13;0.97;;;10.30;99.90;;;;;;5048378;28;20209;-87
2021/12/18 06:55:31;;;;;;;0.43;0.43;;;10.30;99.90;;;;;;5049356;28;20214;-89
2021/12/18 06:57:57;;;;;;;4.23;0.40;;;10.30;99.90;;;;;;5048549;28;20363;-89
2021/12/18 07:00:24;;;;;;;0.70;0.70;;;10.30;99.90;;;;;;5049394;28;20225;-88
2021/12/18 07:02:50;;;;;;;3.87;0.60;;;10.30;99.90;;;;;;5049704;28;20805;-94
2021/12/18 07:05:16;;;;;;;1.47;0.60;;;10.40;99.90;;;;;;5055209;28;20202;-92
2021/12/18 07:07:42;;;;;;;1.50;1.03;;;10.40;99.90;;;;;;5054403;28;20308;-89
2021/12/18 07:10:13;;;;;;;0.53;0.53;;;10.40;99.90;;;;;;5051996;28;20217;-89
2021/12/18 07:12:39;;;;;;;0.87;0.67;;;10.40;99.90;;;;;;5042066;28;20234;-90
2021/12/18 07:15:07;;;;;;;0.40;0.40;;;10.40;99.90;;;;;;5048994;28;20210;-92
2021/12/18 07:17:33;;;;;;;2.63;0.63;;;10.40;99.90;;;;;;5045666;28;20240;-87
2021/12/18 07:19:58;;;;;;;2.70;1.07;;;10.40;99.90;;;;;;5011726;28;20198;-90
2021/12/18 07:22:24;;;;;;;1.10;0.70;;;10.40;99.90;;;;;;5044043;28;20218;-92
2021/12/18 07:24:50;;;;;;;1.77;1.20;;;10.50;99.90;;;;;;5028979;28;20232;-89
2021/12/18 07:27:16;;;;;;;1.13;1.13;;;10.50;99.90;;;;;;5028041;28;21007;-86
2021/12/18 07:29:42;;;;;;;3.83;1.23;;;10.50;99.90;;;;;;5029090;28;20182;-88
2021/12/18 07:32:08;;;;;;;0.60;0.60;;;10.50;99.90;;;;;;5029720;28;20741;-88
2021/12/18 07:34:34;;;;;;;5.67;2.80;;;10.50;99.90;;;;;;5029856;28;20708;-89
2021/12/18 07:37:00;;;;;;;2.33;1.67;;;10.50;99.90;;;;;;5049381;28;20753;-88
2021/12/18 07:39:26;;;;;;;3.07;1.97;;;10.50;99.90;;;;;;5034955;28;20222;-87
2021/12/18 07:41:52;;;;;;;0.97;0.97;;;10.50;99.90;;;;;;5052860;28;20225;-88
2021/12/18 07:44:17;;;;;;;1.63;1.10;;;10.40;99.90;;;;;;5055258;28;20231;-91
2021/12/18 07:46:43;;;;;;;1.10;1.00;;;10.50;99.90;;;;;;5054899;28;20514;-93
2021/12/18 07:49:09;;;;;;;1.17;0.90;;;10.50;99.90;;;;;;5039908;28;20214;-92
2021/12/18 07:51:36;;;;;;;1.37;0.60;;;10.40;99.90;;;;;;5023021;28;20556;-91
2021/12/18 07:54:03;;;;;;;1.17;0.57;;;10.50;99.90;;;;;;5058100;28;20240;-88
2021/12/18 07:56:29;;;;;;;0.20;0.20;;;10.50;99.90;;;;;;5077139;28;20182;-92
2021/12/18 07:58:56;;;;;;;5.20;0.87;;;10.50;99.90;;;;;;5042132;28;20198;-93
2021/12/18 08:01:22;;;;;;;0.80;0.80;;;10.50;99.90;;;;;;5041334;28;20232;-92
2021/12/18 08:03:48;;;;;;;0.57;0.57;;;10.50;99.90;;;;;;5050553;28;20221;-87
2021/12/18 08:06:15;;;;;;;0.83;0.60;;;10.50;99.90;;;;;;5045387;28;20758;-88
2021/12/18 08:08:41;;;;;;;0.50;0.50;;;10.50;99.90;;;;;;5028273;28;20190;-88
2021/12/18 08:11:06;;;;;;;0.60;0.60;;;10.50;99.90;;;;;;5061142;28;20222;-92
2021/12/18 08:13:32;;;;;;;0.73;0.73;;;10.50;99.90;;;;;;5011167;28;20230;-92
2021/12/18 08:15:58;;;;;;;1.17;0.70;;;10.50;99.90;;;;;;5026691;28;20260;-91
2021/12/18 08:18:24;;;;;;;1.30;0.80;;;10.60;99.90;;;;;;5028432;28;20249;-93
2021/12/18 08:20:50;;;;;;;0.67;0.50;;;10.60;99.90;;;;;;5027344;28;20720;-89
2021/12/18 08:23:15;;;;;;;1.17;1.17;;;10.60;99.90;;;;;;5028508;28;20303;-90
2021/12/18 08:25:41;;;;;;;4.43;0.93;;;10.60;99.90;;;;;;5030975;28;20300;-90
2021/12/18 08:28:07;;;;;;;1.23;1.10;;;10.60;99.90;;;;;;5045710;28;20225;-90
2021/12/18 08:30:36;;;;;;;1.30;1.20;;;10.60;99.90;;;;;;5044726;28;20249;-92
2021/12/18 08:33:03;;;;;;;2.03;1.23;;;10.60;99.90;;;;;;5044292;28;20233;-92
2021/12/18 08:35:31;;;;;;;3.53;1.20;;;10.60;99.90;;;;;;5045652;28;20276;-90
2021/12/18 08:37:58;;;;;;;1.20;1.10;;;10.70;99.90;;;;;;5040244;28;20197;-91
2021/12/18 08:40:28;;;;;;;2.40;2.13;;;10.70;99.90;;;;;;5042817;28;20271;-90
2021/12/18 08:42:54;;;;;;;1.57;1.07;;;10.70;99.90;;;;;;5040497;28;20218;-89
2021/12/18 08:45:20;;;;;;;2.40;2.20;;;10.70;99.90;;;;;;5045897;28;20260;-94
2021/12/18 08:47:46;;;;;;;2.20;2.03;;;10.80;99.90;;;;;;5048474;28;20796;-90
2021/12/18 08:50:17;;;;;;;1.87;1.60;;;10.70;99.90;;;;;;5052384;28;20281;-90
2021/12/18 08:52:44;;;;;;;1.53;1.17;;;10.80;99.90;;;;;;5041491;28;20240;-88
2021/12/18 08:55:10;;;;;;;3.33;1.40;;;10.70;99.90;;;;;;5053476;28;20218;-91
2021/12/18 08:57:36;;;;;;;2.00;1.33;;;10.70;99.90;;;;;;5051044;28;20670;-90
2021/12/18 09:00:05;;;;;;;2.87;1.50;;;10.70;99.90;;;;;;5033443;28;20221;-89
2021/12/18 09:02:31;;;;;;;0.67;0.67;;;10.70;99.90;;;;;;5034153;28;20194;-87
2021/12/18 09:04:56;;;;;;;1.80;1.40;;;10.70;99.90;;;;;;5055708;28;20193;-88
2021/12/18 09:07:25;;;;;;;4.27;1.77;;;10.70;99.90;;;;;;5057493;28;20218;-92
2021/12/18 09:09:51;;;;;;;6.90;1.33;;;10.60;99.90;;;;;;5033786;28;20690;-90
2021/12/18 09:12:16;;;;;;;0.70;0.60;;;10.60;99.90;;;;;;5013896;28;20230;-90
2021/12/18 09:14:42;;;;;;;0.40;0.40;;;10.60;99.90;;;;;;5045511;28;20190;-90
2021/12/18 09:17:09;;;;;;;1.33;0.70;;;10.60;99.90;;;;;;5045075;28;20194;-89
2021/12/18 09:19:35;;;;;;;1.33;1.23;;;10.60;99.90;;;;;;5015063;28;20253;-90
2021/12/18 09:22:01;;;;;;;0.40;0.40;;;10.60;99.90;;;;;;5030048;28;20218;-90
2021/12/18 09:24:27;;;;;;;0.57;0.57;;;10.60;99.90;;;;;;5048168;28;20686;-90
2021/12/18 09:26:53;;;;;;;0.60;0.60;;;10.60;99.90;;;;;;5046647;28;20221;-90
2021/12/18 09:29:19;;;;;;;1.27;0.97;;;10.60;99.90;;;;;;5046157;28;20185;-89
2021/12/18 09:31:45;;;;;;;1.87;1.10;;;10.60;99.90;;;;;;5046501;28;20858;-90
2021/12/18 09:34:13;;;;;;;0.60;0.53;;;10.60;99.90;;;;;;5048055;28;20229;-89
2021/12/18 09:36:39;;;;;;;0.40;0.30;;;10.60;99.90;;;;;;5047824;28;20753;-89
2021/12/18 09:39:05;;;;;;;0.50;0.50;;;10.70;99.90;;;;;;5046208;28;20316;-89
2021/12/18 09:41:31;;;;;;;0.60;0.60;;;10.70;99.90;;;;;;5045728;28;20799;-89
2021/12/18 09:43:57;;;;;;;0.43;0.43;;;10.70;99.90;;;;;;5049305;28;20386;-90
2021/12/18 09:46:23;;;;;;;1.30;0.80;;;10.60;99.90;;;;;;5050831;28;20268;-89
2021/12/18 09:48:49;;;;;;;1.10;1.00;;;10.60;99.90;;;;;;5031058;28;20209;-89
2021/12/18 09:51:27;;;;;;;0.50;0.30;;;10.70;99.90;;;;;;5048323;28;20221;-90
2021/12/18 09:53:54;;;;;;;0.50;0.50;;;10.60;99.90;;;;;;5050416;28;20222;-91
2021/12/18 09:56:22;;;;;;;0.87;0.73;;;10.70;99.90;;;;;;5049758;28;20642;-90
2021/12/18 09:58:48;;;;;;;1.10;1.00;;;10.70;99.90;;;;;;5042812;28;20304;-87
2021/12/18 10:01:15;;;;;;;1.23;1.10;;;10.60;99.90;;;;;;5050184;28;20222;-91
2021/12/18 10:03:52;;;;;;;0.97;0.70;;;10.70;99.90;;;;;;5030624;28;20224;-87
2021/12/18 10:06:44;;;;;;;0.60;0.50;;;10.60;99.90;;;;;;5048957;28;20320;-89
2021/12/18 10:09:28;;;;;;;0.30;0.30;;;10.60;99.90;;;;;;5031632;28;20242;-85
2021/12/18 10:12:00;;;;;;;0.60;0.60;;;10.50;99.90;;;;;;5047811;28;20237;-92
2021/12/18 10:14:37;;;;;;;1.23;1.07;;;10.70;99.90;;;;;;5065774;28;20224;-92
2021/12/18 10:17:22;;;;;;;0.30;0.30;;;10.70;99.90;;;;;;5047730;28;20643;-92
2021/12/18 10:19:57;;;;;;;0.40;0.40;;;10.70;99.90;;;;;;5048576;28;20212;-93
2021/12/18 10:22:28;;;;;;;1.70;1.40;;;10.70;99.90;;;;;;5047034;28;20225;-93
2021/12/18 10:25:13;;;;;;;0.50;0.50;;;10.80;99.90;;;;;;5057054;28;20222;-93
2021/12/18 10:27:42;;;;;;;3.10;0.70;;;10.80;99.90;;;;;;5045348;28;20985;-90
2021/12/18 10:30:19;;;;;;;0.73;0.70;;;10.80;99.90;;;;;;5046959;28;20214;-90
2021/12/18 10:32:57;;;;;;;8.30;0.43;;;10.70;99.90;;;;;;5049782;28;20275;-89
2021/12/18 10:35:47;;;;;;;0.23;0.23;;;10.70;99.90;;;;;;5049001;28;20322;-92
2021/12/18 10:38:35;;;;;;;1.87;0.40;;;10.70;99.90;;;;;;5051983;28;20304;-92
2021/12/18 10:41:00;;;;;;;0.60;0.60;;;10.70;99.90;;;;;;5050287;28;20214;-91
2021/12/18 10:43:46;;;;;;;0.50;0.43;;;10.70;99.90;;;;;;5032184;28;20221;-92
2021/12/18 10:46:19;;;;;;;0.40;0.40;;;10.70;99.90;;;;;;5048885;28;20229;-91
2021/12/18 10:49:14;;;;;;;0.57;0.57;;;10.70;99.90;;;;;;5049250;28;20309;-92
2021/12/18 10:51:42;;;;;;;0.70;0.67;;;10.80;99.90;;;;;;5041387;28;20233;-93
2021/12/18 10:54:20;;;;;;;1.30;1.20;;;10.80;99.90;;;;;;5050160;28;20233;-93
2021/12/18 10:56:55;;;;;;;0.83;0.60;;;10.90;99.90;;;;;;5048704;28;20224;-91
2021/12/18 10:59:25;;;;;;;0.70;0.57;;;10.90;99.90;;;;;;5048822;28;20186;-90
2021/12/18 11:01:53;;;;;;;0.43;0.43;;;10.80;99.90;;;;;;5047996;28;20257;-91
2021/12/18 11:04:34;;;;;;;2.73;0.50;;;10.90;99.90;;;;;;5033357;28;20283;-90
2021/12/18 11:07:19;;;;;;;0.33;0.33;;;10.90;99.90;;;;;;5048123;28;20224;-91
2021/12/18 11:09:59;;;;;;;0.20;0.20;;;10.90;99.90;;;;;;5044275;28;20313;-91
2021/12/18 11:15:10;;;;;;;0.87;0.87;;;10.80;99.90;;;;;;5068818;28;20221;-90
2021/12/18 11:17:36;;;;;;;0.87;0.87;;;10.90;99.90;;;;;;5037466;28;20217;-93
2021/12/18 11:20:03;;;;;;;0.83;0.43;;;10.90;99.90;;;;;;5059981;28;20212;-93
2021/12/18 11:22:29;;;;;;;0.60;0.53;;;10.90;99.90;;;;;;5026997;28;20226;-93
2021/12/18 11:25:05;;;;;;;0.70;0.70;;;10.90;99.90;;;;;;5040682;28;20214;-94
2021/12/18 11:27:32;;;;;;;0.60;0.60;;;11.00;99.90;;;;;;5048393;28;20214;-92
2021/12/18 11:30:06;;;;;;;0.53;0.53;;;11.00;99.90;;;;;;5045550;28;20414;-92
2021/12/18 11:32:35;;;;;;;3.00;0.70;;;10.90;99.90;;;;;;5045170;28;21033;-93
2021/12/18 11:35:04;;;;;;;1.30;0.80;;;11.00;99.90;;;;;;5047342;28;20572;-93
2021/12/18 11:37:41;;;;;;;0.50;0.50;;;11.00;99.90;;;;;;5046416;28;20364;-94
2021/12/18 11:40:10;;;;;;;1.13;1.10;;;10.90;99.90;;;;;;5046448;28;20226;-94
2021/12/18 11:42:36;;;;;;;0.57;0.53;;;10.90;99.90;;;;;;5029473;28;20228;-93
2021/12/18 11:45:06;;;;;;;1.43;0.93;;;10.80;99.90;;;;;;5029319;28;20222;-94
2021/12/18 11:47:35;;;;;;;4.70;2.23;;;10.80;99.90;;;;;;5044615;28;20194;-95
2021/12/18 11:50:06;;;;;;;1.97;1.80;;;10.80;99.90;;;;;;5044950;28;20239;-93
2021/12/18 11:52:58;;;;;;;0.67;0.30;;;10.80;99.90;;;;;;5044531;28;20225;-93
2021/12/18 11:55:27;;;;;;;0.73;0.43;;;10.80;99.90;;;;;;5043720;28;20260;-93
2021/12/18 11:57:55;;;;;;;0.60;0.60;;;10.80;99.90;;;;;;5040665;28;20301;-93
2021/12/18 12:00:23;;;;;;;1.23;1.00;;;10.80;99.90;;;;;;5045057;28;20214;-93
2021/12/18 12:03:09;;;;;;;1.53;0.90;;;10.80;99.90;;;;;;5051438;28;20261;-94
2021/12/18 12:05:46;;;;;;;7.53;0.60;;;10.90;99.90;;;;;;5046503;28;20490;-93
2021/12/18 12:08:21;;;;;;;1.33;0.90;;;10.90;99.90;;;;;;5063463;28;20196;-92
2021/12/18 12:11:15;;;;;;;0.80;0.77;;;10.90;99.90;;;;;;5046543;28;20221;-92
2021/12/18 12:14:02;;;;;;;2.57;0.60;;;10.80;99.90;;;;;;5044292;28;20220;-93
2021/12/18 12:16:44;;;;;;;0.80;0.80;;;10.80;99.90;;;;;;5045573;28;20324;-93
2021/12/18 12:19:19;;;;;;;0.43;0.43;;;10.80;99.90;;;;;;5044560;28;20806;-92
2021/12/18 12:21:56;;;;;;;0.70;0.70;;;10.80;99.90;;;;;;5044178;28;20214;-94
2021/12/18 12:24:27;;;;;;;0.70;0.70;;;10.80;99.90;;;;;;5045461;28;20221;-90
2021/12/18 12:27:14;;;;;;;0.87;0.70;;;10.90;99.90;;;;;;5045106;28;20221;-91
2021/12/18 12:29:49;;;;;;;0.60;0.60;;;10.90;99.90;;;;;;5045931;28;20194;-94
2021/12/18 12:32:16;;;;;;;0.27;0.27;;;10.80;99.90;;;;;;5046547;28;20220;-93
2021/12/18 12:34:44;;;;;;;2.63;2.40;;;10.80;99.90;;;;;;5046098;28;20392;-93
2021/12/18 12:37:34;;;;;;;1.27;0.77;;;10.80;99.90;;;;;;5027535;28;20228;-94
2021/12/18 12:40:10;;;;;;;1.90;0.57;;;10.70;99.90;;;;;;5044131;28;20804;-93
2021/12/18 12:42:38;;;;;;;0.43;0.43;;;10.60;99.90;;;;;;5044610;28;20217;-93
2021/12/18 12:45:14;;;;;;;1.67;1.13;;;10.60;99.90;;;;;;5049851;28;20606;-95
2021/12/18 12:47:40;;;;;;;0.30;0.30;;;10.70;99.90;;;;;;5049204;28;20178;-94
2021/12/18 12:50:12;;;;;;;0.97;0.87;;;10.70;99.90;;;;;;5050025;28;20216;-93
2021/12/18 12:52:52;;;;;;;0.50;0.50;;;10.70;99.90;;;;;;5049154;28;20305;-94
2021/12/18 12:55:21;;;;;;;0.57;0.57;;;10.70;99.90;;;;;;5048503;28;20236;-94
2021/12/18 12:57:50;;;;;;;1.97;1.63;;;10.80;99.90;;;;;;5047859;28;20225;-92
2021/12/18 13:00:23;;;;;;;0.70;0.63;;;10.70;99.90;;;;;;5045682;28;20221;-93
2021/12/18 13:03:11;;;;;;;2.60;1.10;;;10.80;99.90;;;;;;5044061;28;20264;-95
2021/12/18 13:05:59;;;;;;;1.00;0.67;;;10.70;99.90;;;;;;5048019;28;20182;-94
2021/12/18 13:08:27;;;;;;;1.07;0.97;;;10.70;99.90;;;;;;5050982;28;20269;-94
2021/12/18 13:10:58;;;;;;;0.30;0.30;;;10.80;99.90;;;;;;5048955;28;20213;-93
2021/12/18 13:13:28;;;;;;;0.57;0.50;;;10.70;99.90;;;;;;5043571;28;20559;-94
2021/12/18 13:16:04;;;;;;;0.93;0.87;;;10.70;99.90;;;;;;5042057;28;20214;-94
2021/12/18 13:18:32;;;;;;;1.10;1.00;;;10.80;99.90;;;;;;5046079;28;20681;-93
2021/12/18 13:21:02;;;;;;;1.40;1.30;;;10.80;99.90;;;;;;5047684;28;20214;-93
2021/12/18 13:23:45;;;;;;;0.77;0.77;;;10.80;99.90;;;;;;5045023;28;20228;-94
2021/12/18 13:26:14;;;;;;;1.40;1.20;;;10.80;99.90;;;;;;5047417;28;20348;-91
2021/12/18 13:28:55;;;;;;;1.23;1.23;;;10.80;99.90;;;;;;5067220;28;20563;-91
2021/12/18 13:31:24;;;;;;;12.63;1.27;;;10.80;99.90;;;;;;5058203;28;20222;-92
2021/12/18 13:34:00;;;;;;;1.20;1.10;;;10.80;99.90;;;;;;5040860;28;20214;-91
2021/12/18 13:36:39;;;;;;;0.80;0.80;;;10.90;99.90;;;;;;5042589;28;20605;-90
2021/12/18 13:39:12;;;;;;;4.10;3.33;;;10.90;99.90;;;;;;5042504;28;20218;-91
2021/12/18 13:41:38;;;;;;;2.43;1.43;;;10.90;99.90;;;;;;5045006;28;20194;-92
2021/12/18 13:44:04;;;;;;;2.43;1.77;;;10.90;99.90;;;;;;5042268;28;20189;-94
2021/12/18 13:46:31;;;;;;;8.17;2.03;;;10.90;99.90;;;;;;5045575;28;20237;-92
2021/12/18 13:49:01;;;;;;;2.53;2.23;;;10.90;99.90;;;;;;5048406;28;20229;-91